sensor_id;sensor_type;location;lat;lon;timestamp;P1;durP1;ratioP1;P2;durP2;ratioP2
21101;SDS011;10709;49.006;12.100;2023-09-07T00:01:33;6.00;;;5.40;;
21101;SDS011;10709;49.006;12.100;2023-09-07T00:04:00;5.68;;;5.10;;
21101;SDS011;10709;49.006;12.100;2023-09-07T00:06:27;6.57;;;5.10;;
21101;SDS011;10709;49.006;12.100;2023-09-07T00:08:53;6.05;;;5.30;;
21101;SDS011;10709;49.006;12.100;2023-09-07T00:11:20;6.25;;;5.57;;
21101;SDS011;10709;49.006;12.100;2023-09-07T00:13:46;5.60;;;5.10;;
21101;SDS011;10709;49.006;12.100;2023-09-07T00:16:13;5.63;;;4.97;;
21101;SDS011;10709;49.006;12.100;2023-09-07T00:18:41;5.22;;;4.72;;
21101;SDS011;10709;49.006;12.100;2023-09-07T00:21:07;6.32;;;5.50;;
21101;SDS011;10709;49.006;12.100;2023-09-07T00:23:33;5.88;;;5.28;;
21101;SDS011;10709;49.006;12.100;2023-09-07T00:26:00;5.18;;;4.68;;
21101;SDS011;10709;49.006;12.100;2023-09-07T00:28:27;7.93;;;5.18;;
21101;SDS011;10709;49.006;12.100;2023-09-07T00:30:54;5.90;;;5.20;;
21101;SDS011;10709;49.006;12.100;2023-09-07T00:33:20;5.60;;;4.93;;
21101;SDS011;10709;49.006;12.100;2023-09-07T00:35:47;5.95;;;5.30;;
21101;SDS011;10709;49.006;12.100;2023-09-07T00:38:13;7.20;;;5.18;;
21101;SDS011;10709;49.006;12.100;2023-09-07T00:40:42;5.53;;;5.03;;
21101;SDS011;10709;49.006;12.100;2023-09-07T00:43:11;6.10;;;5.50;;
21101;SDS011;10709;49.006;12.100;2023-09-07T00:45:38;6.18;;;5.57;;
21101;SDS011;10709;49.006;12.100;2023-09-07T00:48:06;6.93;;;5.70;;
21101;SDS011;10709;49.006;12.100;2023-09-07T00:50:32;6.60;;;5.20;;
21101;SDS011;10709;49.006;12.100;2023-09-07T00:52:59;7.47;;;5.35;;
21101;SDS011;10709;49.006;12.100;2023-09-07T00:55:27;6.05;;;5.45;;
21101;SDS011;10709;49.006;12.100;2023-09-07T00:57:57;7.05;;;5.50;;
21101;SDS011;10709;49.006;12.100;2023-09-07T01:00:23;5.88;;;5.30;;
21101;SDS011;10709;49.006;12.100;2023-09-07T01:02:50;6.85;;;5.50;;
21101;SDS011;10709;49.006;12.100;2023-09-07T01:05:17;7.78;;;5.75;;
21101;SDS011;10709;49.006;12.100;2023-09-07T01:07:46;6.28;;;5.68;;
21101;SDS011;10709;49.006;12.100;2023-09-07T01:10:17;7.13;;;5.80;;
21101;SDS011;10709;49.006;12.100;2023-09-07T01:12:45;6.90;;;6.18;;
21101;SDS011;10709;49.006;12.100;2023-09-07T01:15:11;6.85;;;5.50;;
21101;SDS011;10709;49.006;12.100;2023-09-07T01:17:39;5.95;;;5.30;;
21101;SDS011;10709;49.006;12.100;2023-09-07T01:20:07;6.13;;;5.03;;
21101;SDS011;10709;49.006;12.100;2023-09-07T01:22:36;5.50;;;5.00;;
21101;SDS011;10709;49.006;12.100;2023-09-07T01:25:04;6.38;;;5.68;;
21101;SDS011;10709;49.006;12.100;2023-09-07T01:27:33;7.60;;;5.72;;
21101;SDS011;10709;49.006;12.100;2023-09-07T01:30:00;7.00;;;5.90;;
21101;SDS011;10709;49.006;12.100;2023-09-07T01:32:29;8.68;;;6.57;;
21101;SDS011;10709;49.006;12.100;2023-09-07T01:34:56;5.97;;;5.38;;
21101;SDS011;10709;49.006;12.100;2023-09-07T01:37:24;5.97;;;5.38;;
21101;SDS011;10709;49.006;12.100;2023-09-07T01:39:50;6.85;;;6.25;;
21101;SDS011;10709;49.006;12.100;2023-09-07T01:42:17;6.82;;;6.13;;
21101;SDS011;10709;49.006;12.100;2023-09-07T01:44:43;7.18;;;5.75;;
21101;SDS011;10709;49.006;12.100;2023-09-07T01:47:10;7.50;;;5.90;;
21101;SDS011;10709;49.006;12.100;2023-09-07T01:49:37;6.13;;;5.18;;
21101;SDS011;10709;49.006;12.100;2023-09-07T01:52:09;6.22;;;5.63;;
21101;SDS011;10709;49.006;12.100;2023-09-07T01:54:35;6.50;;;5.90;;
21101;SDS011;10709;49.006;12.100;2023-09-07T01:57:04;5.50;;;5.00;;
21101;SDS011;10709;49.006;12.100;2023-09-07T01:59:30;6.07;;;5.47;;
21101;SDS011;10709;49.006;12.100;2023-09-07T02:01:57;6.45;;;5.53;;
21101;SDS011;10709;49.006;12.100;2023-09-07T02:04:23;6.30;;;5.28;;
21101;SDS011;10709;49.006;12.100;2023-09-07T02:06:50;7.70;;;6.00;;
21101;SDS011;10709;49.006;12.100;2023-09-07T02:09:17;7.97;;;5.80;;
21101;SDS011;10709;49.006;12.100;2023-09-07T02:11:43;6.35;;;5.75;;
21101;SDS011;10709;49.006;12.100;2023-09-07T02:14:09;6.55;;;5.80;;
21101;SDS011;10709;49.006;12.100;2023-09-07T02:16:37;6.07;;;5.47;;
21101;SDS011;10709;49.006;12.100;2023-09-07T02:19:04;5.80;;;5.30;;
21101;SDS011;10709;49.006;12.100;2023-09-07T02:21:33;6.68;;;5.97;;
21101;SDS011;10709;49.006;12.100;2023-09-07T02:23:59;7.78;;;5.95;;
21101;SDS011;10709;49.006;12.100;2023-09-07T02:26:26;7.13;;;6.40;;
21101;SDS011;10709;49.006;12.100;2023-09-07T02:28:54;6.82;;;5.78;;
21101;SDS011;10709;49.006;12.100;2023-09-07T02:31:20;7.32;;;6.35;;
21101;SDS011;10709;49.006;12.100;2023-09-07T02:33:48;6.30;;;5.70;;
21101;SDS011;10709;49.006;12.100;2023-09-07T02:36:14;6.65;;;5.97;;
21101;SDS011;10709;49.006;12.100;2023-09-07T02:38:41;6.55;;;5.85;;
21101;SDS011;10709;49.006;12.100;2023-09-07T02:41:07;5.78;;;5.28;;
21101;SDS011;10709;49.006;12.100;2023-09-07T02:43:34;7.28;;;6.47;;
21101;SDS011;10709;49.006;12.100;2023-09-07T02:46:01;7.05;;;6.15;;
21101;SDS011;10709;49.006;12.100;2023-09-07T02:48:27;7.20;;;5.38;;
21101;SDS011;10709;49.006;12.100;2023-09-07T02:50:54;6.10;;;5.50;;
21101;SDS011;10709;49.006;12.100;2023-09-07T02:53:26;6.05;;;5.07;;
21101;SDS011;10709;49.006;12.100;2023-09-07T02:55:52;6.30;;;5.70;;
21101;SDS011;10709;49.006;12.100;2023-09-07T02:58:19;5.75;;;5.22;;
21101;SDS011;10709;49.006;12.100;2023-09-07T03:00:46;6.20;;;5.43;;
21101;SDS011;10709;49.006;12.100;2023-09-07T03:03:13;7.20;;;5.77;;
21101;SDS011;10709;49.006;12.100;2023-09-07T03:05:41;5.73;;;5.20;;
21101;SDS011;10709;49.006;12.100;2023-09-07T03:08:09;6.13;;;5.60;;
21101;SDS011;10709;49.006;12.100;2023-09-07T03:10:36;6.50;;;5.78;;
21101;SDS011;10709;49.006;12.100;2023-09-07T03:13:06;7.45;;;6.10;;
21101;SDS011;10709;49.006;12.100;2023-09-07T03:15:34;5.80;;;5.30;;
21101;SDS011;10709;49.006;12.100;2023-09-07T03:18:01;6.20;;;5.32;;
21101;SDS011;10709;49.006;12.100;2023-09-07T03:20:28;7.03;;;6.30;;
21101;SDS011;10709;49.006;12.100;2023-09-07T03:22:55;7.15;;;5.13;;
21101;SDS011;10709;49.006;12.100;2023-09-07T03:25:22;6.22;;;5.20;;
21101;SDS011;10709;49.006;12.100;2023-09-07T03:27:49;5.78;;;5.18;;
21101;SDS011;10709;49.006;12.100;2023-09-07T03:30:18;6.10;;;5.50;;
21101;SDS011;10709;49.006;12.100;2023-09-07T03:32:47;7.63;;;6.32;;
21101;SDS011;10709;49.006;12.100;2023-09-07T03:35:13;5.43;;;4.93;;
21101;SDS011;10709;49.006;12.100;2023-09-07T03:37:42;5.93;;;5.25;;
21101;SDS011;10709;49.006;12.100;2023-09-07T03:40:09;6.00;;;5.30;;
21101;SDS011;10709;49.006;12.100;2023-09-07T03:42:36;9.63;;;6.00;;
21101;SDS011;10709;49.006;12.100;2023-09-07T03:45:03;7.13;;;6.25;;
21101;SDS011;10709;49.006;12.100;2023-09-07T03:47:29;6.20;;;5.60;;
21101;SDS011;10709;49.006;12.100;2023-09-07T03:49:56;7.07;;;5.85;;
21101;SDS011;10709;49.006;12.100;2023-09-07T03:52:23;6.50;;;5.87;;
21101;SDS011;10709;49.006;12.100;2023-09-07T03:54:51;5.93;;;5.40;;
21101;SDS011;10709;49.006;12.100;2023-09-07T03:57:18;8.10;;;6.70;;
21101;SDS011;10709;49.006;12.100;2023-09-07T03:59:47;7.47;;;6.10;;
21101;SDS011;10709;49.006;12.100;2023-09-07T04:02:14;6.55;;;5.85;;
21101;SDS011;10709;49.006;12.100;2023-09-07T04:04:41;6.20;;;5.60;;
21101;SDS011;10709;49.006;12.100;2023-09-07T04:07:08;7.43;;;6.57;;
21101;SDS011;10709;49.006;12.100;2023-09-07T04:09:35;6.05;;;5.40;;
21101;SDS011;10709;49.006;12.100;2023-09-07T04:12:01;7.20;;;5.80;;
21101;SDS011;10709;49.006;12.100;2023-09-07T04:14:30;6.50;;;5.82;;
21101;SDS011;10709;49.006;12.100;2023-09-07T04:16:56;6.30;;;5.70;;
21101;SDS011;10709;49.006;12.100;2023-09-07T04:19:23;6.82;;;5.65;;
21101;SDS011;10709;49.006;12.100;2023-09-07T04:21:50;7.57;;;5.80;;
21101;SDS011;10709;49.006;12.100;2023-09-07T04:24:18;7.93;;;5.97;;
21101;SDS011;10709;49.006;12.100;2023-09-07T04:26:45;6.72;;;5.68;;
21101;SDS011;10709;49.006;12.100;2023-09-07T04:29:13;6.83;;;5.80;;
21101;SDS011;10709;49.006;12.100;2023-09-07T04:31:40;7.37;;;6.67;;
21101;SDS011;10709;49.006;12.100;2023-09-07T04:34:07;7.50;;;6.22;;
21101;SDS011;10709;49.006;12.100;2023-09-07T04:36:34;7.73;;;5.93;;
21101;SDS011;10709;49.006;12.100;2023-09-07T04:39:00;7.27;;;6.10;;
21101;SDS011;10709;49.006;12.100;2023-09-07T04:41:28;7.53;;;6.07;;
21101;SDS011;10709;49.006;12.100;2023-09-07T04:43:55;7.13;;;6.10;;
21101;SDS011;10709;49.006;12.100;2023-09-07T04:46:22;8.03;;;6.37;;
21101;SDS011;10709;49.006;12.100;2023-09-07T04:48:49;10.80;;;6.90;;
21101;SDS011;10709;49.006;12.100;2023-09-07T04:51:16;7.53;;;6.25;;
21101;SDS011;10709;49.006;12.100;2023-09-07T04:53:43;7.27;;;5.77;;
21101;SDS011;10709;49.006;12.100;2023-09-07T04:56:09;6.45;;;5.72;;
21101;SDS011;10709;49.006;12.100;2023-09-07T04:58:36;8.20;;;5.80;;
21101;SDS011;10709;49.006;12.100;2023-09-07T05:01:06;6.90;;;6.00;;
21101;SDS011;10709;49.006;12.100;2023-09-07T05:03:37;6.72;;;5.85;;
21101;SDS011;10709;49.006;12.100;2023-09-07T05:06:04;6.20;;;5.60;;
21101;SDS011;10709;49.006;12.100;2023-09-07T05:08:31;6.47;;;5.72;;
21101;SDS011;10709;49.006;12.100;2023-09-07T05:10:59;7.80;;;6.20;;
21101;SDS011;10709;49.006;12.100;2023-09-07T05:13:27;6.65;;;6.00;;
21101;SDS011;10709;49.006;12.100;2023-09-07T05:15:57;7.75;;;6.15;;
21101;SDS011;10709;49.006;12.100;2023-09-07T05:18:25;9.18;;;5.93;;
21101;SDS011;10709;49.006;12.100;2023-09-07T05:20:52;8.90;;;6.28;;
21101;SDS011;10709;49.006;12.100;2023-09-07T05:23:18;8.43;;;6.22;;
21101;SDS011;10709;49.006;12.100;2023-09-07T05:25:50;8.15;;;7.28;;
21101;SDS011;10709;49.006;12.100;2023-09-07T05:28:22;7.40;;;6.70;;
21101;SDS011;10709;49.006;12.100;2023-09-07T05:30:49;6.43;;;5.83;;
21101;SDS011;10709;49.006;12.100;2023-09-07T05:33:16;8.40;;;6.18;;
21101;SDS011;10709;49.006;12.100;2023-09-07T05:35:43;6.65;;;6.00;;
21101;SDS011;10709;49.006;12.100;2023-09-07T05:38:12;9.33;;;7.30;;
21101;SDS011;10709;49.006;12.100;2023-09-07T05:40:40;8.03;;;7.23;;
21101;SDS011;10709;49.006;12.100;2023-09-07T05:43:07;10.30;;;8.30;;
21101;SDS011;10709;49.006;12.100;2023-09-07T05:45:34;8.48;;;6.63;;
21101;SDS011;10709;49.006;12.100;2023-09-07T05:48:05;7.40;;;6.70;;
21101;SDS011;10709;49.006;12.100;2023-09-07T05:50:34;8.47;;;6.67;;
21101;SDS011;10709;49.006;12.100;2023-09-07T05:53:02;10.70;;;7.00;;
21101;SDS011;10709;49.006;12.100;2023-09-07T05:55:28;8.30;;;6.72;;
21101;SDS011;10709;49.006;12.100;2023-09-07T05:57:55;10.05;;;8.02;;
21101;SDS011;10709;49.006;12.100;2023-09-07T06:00:23;8.60;;;7.27;;
21101;SDS011;10709;49.006;12.100;2023-09-07T06:02:52;8.83;;;7.40;;
21101;SDS011;10709;49.006;12.100;2023-09-07T06:05:19;8.80;;;7.53;;
21101;SDS011;10709;49.006;12.100;2023-09-07T06:07:46;12.87;;;8.10;;
21101;SDS011;10709;49.006;12.100;2023-09-07T06:10:13;8.27;;;7.15;;
21101;SDS011;10709;49.006;12.100;2023-09-07T06:12:40;8.70;;;7.07;;
21101;SDS011;10709;49.006;12.100;2023-09-07T06:15:07;8.43;;;6.80;;
21101;SDS011;10709;49.006;12.100;2023-09-07T06:17:34;8.40;;;6.32;;
21101;SDS011;10709;49.006;12.100;2023-09-07T06:20:01;14.00;;;8.55;;
21101;SDS011;10709;49.006;12.100;2023-09-07T06:22:29;11.32;;;7.28;;
21101;SDS011;10709;49.006;12.100;2023-09-07T06:24:55;11.30;;;7.90;;
21101;SDS011;10709;49.006;12.100;2023-09-07T06:27:22;11.65;;;7.82;;
21101;SDS011;10709;49.006;12.100;2023-09-07T06:29:49;7.80;;;6.93;;
21101;SDS011;10709;49.006;12.100;2023-09-07T06:32:17;10.23;;;8.20;;
21101;SDS011;10709;49.006;12.100;2023-09-07T06:34:45;8.00;;;7.20;;
21101;SDS011;10709;49.006;12.100;2023-09-07T06:37:11;9.48;;;7.13;;
21101;SDS011;10709;49.006;12.100;2023-09-07T06:39:38;11.48;;;7.82;;
21101;SDS011;10709;49.006;12.100;2023-09-07T06:42:05;8.18;;;6.97;;
21101;SDS011;10709;49.006;12.100;2023-09-07T06:44:33;9.13;;;6.90;;
21101;SDS011;10709;49.006;12.100;2023-09-07T06:47:00;9.55;;;7.07;;
21101;SDS011;10709;49.006;12.100;2023-09-07T06:49:26;8.90;;;6.88;;
21101;SDS011;10709;49.006;12.100;2023-09-07T06:51:56;7.30;;;6.40;;
21101;SDS011;10709;49.006;12.100;2023-09-07T06:54:23;7.53;;;6.05;;
21101;SDS011;10709;49.006;12.100;2023-09-07T06:56:51;9.70;;;5.93;;
21101;SDS011;10709;49.006;12.100;2023-09-07T06:59:17;6.97;;;5.85;;
21101;SDS011;10709;49.006;12.100;2023-09-07T07:01:43;7.35;;;6.28;;
21101;SDS011;10709;49.006;12.100;2023-09-07T07:04:10;8.75;;;5.70;;
21101;SDS011;10709;49.006;12.100;2023-09-07T07:06:37;6.57;;;5.72;;
21101;SDS011;10709;49.006;12.100;2023-09-07T07:09:03;8.80;;;5.30;;
21101;SDS011;10709;49.006;12.100;2023-09-07T07:11:30;9.25;;;5.85;;
21101;SDS011;10709;49.006;12.100;2023-09-07T07:13:56;6.32;;;5.60;;
21101;SDS011;10709;49.006;12.100;2023-09-07T07:16:28;8.85;;;6.05;;
21101;SDS011;10709;49.006;12.100;2023-09-07T07:18:55;7.80;;;5.70;;
21101;SDS011;10709;49.006;12.100;2023-09-07T07:21:21;6.70;;;5.40;;
21101;SDS011;10709;49.006;12.100;2023-09-07T07:23:48;7.20;;;5.40;;
21101;SDS011;10709;49.006;12.100;2023-09-07T07:26:14;8.13;;;5.80;;
21101;SDS011;10709;49.006;12.100;2023-09-07T07:28:41;6.70;;;5.80;;
21101;SDS011;10709;49.006;12.100;2023-09-07T07:31:17;6.60;;;5.53;;
21101;SDS011;10709;49.006;12.100;2023-09-07T07:33:43;8.90;;;5.78;;
21101;SDS011;10709;49.006;12.100;2023-09-07T07:36:10;7.32;;;5.53;;
21101;SDS011;10709;49.006;12.100;2023-09-07T07:38:38;7.53;;;6.20;;
21101;SDS011;10709;49.006;12.100;2023-09-07T07:41:05;6.35;;;5.55;;
21101;SDS011;10709;49.006;12.100;2023-09-07T07:43:32;7.28;;;5.80;;
21101;SDS011;10709;49.006;12.100;2023-09-07T07:46:00;7.30;;;6.00;;
21101;SDS011;10709;49.006;12.100;2023-09-07T07:48:27;6.80;;;5.88;;
21101;SDS011;10709;49.006;12.100;2023-09-07T07:50:55;7.97;;;6.03;;
21101;SDS011;10709;49.006;12.100;2023-09-07T07:53:22;6.53;;;5.82;;
21101;SDS011;10709;49.006;12.100;2023-09-07T07:55:48;6.00;;;5.40;;
21101;SDS011;10709;49.006;12.100;2023-09-07T07:58:15;9.60;;;5.95;;
21101;SDS011;10709;49.006;12.100;2023-09-07T08:00:42;7.93;;;6.20;;
21101;SDS011;10709;49.006;12.100;2023-09-07T08:03:11;7.05;;;5.85;;
21101;SDS011;10709;49.006;12.100;2023-09-07T08:05:38;6.90;;;5.78;;
21101;SDS011;10709;49.006;12.100;2023-09-07T08:08:07;6.78;;;5.88;;
21101;SDS011;10709;49.006;12.100;2023-09-07T08:10:34;10.52;;;6.05;;
21101;SDS011;10709;49.006;12.100;2023-09-07T08:13:03;7.05;;;6.03;;
21101;SDS011;10709;49.006;12.100;2023-09-07T08:15:31;11.20;;;6.13;;
21101;SDS011;10709;49.006;12.100;2023-09-07T08:17:58;7.20;;;5.55;;
21101;SDS011;10709;49.006;12.100;2023-09-07T08:20:26;6.10;;;5.25;;
21101;SDS011;10709;49.006;12.100;2023-09-07T08:22:54;7.70;;;5.57;;
21101;SDS011;10709;49.006;12.100;2023-09-07T08:25:21;6.05;;;5.15;;
21101;SDS011;10709;49.006;12.100;2023-09-07T08:27:49;6.68;;;4.90;;
21101;SDS011;10709;49.006;12.100;2023-09-07T08:30:16;5.53;;;4.80;;
21101;SDS011;10709;49.006;12.100;2023-09-07T08:32:44;4.95;;;4.47;;
21101;SDS011;10709;49.006;12.100;2023-09-07T08:35:12;5.10;;;4.60;;
21101;SDS011;10709;49.006;12.100;2023-09-07T08:37:40;9.40;;;5.35;;
21101;SDS011;10709;49.006;12.100;2023-09-07T08:40:07;5.28;;;4.78;;
21101;SDS011;10709;49.006;12.100;2023-09-07T08:42:38;5.93;;;4.80;;
21101;SDS011;10709;49.006;12.100;2023-09-07T08:45:07;5.60;;;4.45;;
21101;SDS011;10709;49.006;12.100;2023-09-07T08:47:36;5.25;;;4.30;;
21101;SDS011;10709;49.006;12.100;2023-09-07T08:50:04;5.47;;;4.22;;
21101;SDS011;10709;49.006;12.100;2023-09-07T08:52:33;7.03;;;4.22;;
21101;SDS011;10709;49.006;12.100;2023-09-07T08:55:01;8.63;;;4.03;;
21101;SDS011;10709;49.006;12.100;2023-09-07T08:57:31;4.97;;;3.92;;
21101;SDS011;10709;49.006;12.100;2023-09-07T08:59:58;7.18;;;4.20;;
21101;SDS011;10709;49.006;12.100;2023-09-07T09:02:25;8.25;;;4.07;;
21101;SDS011;10709;49.006;12.100;2023-09-07T09:04:52;5.78;;;4.30;;
21101;SDS011;10709;49.006;12.100;2023-09-07T09:07:20;6.40;;;4.10;;
21101;SDS011;10709;49.006;12.100;2023-09-07T09:09:48;5.28;;;3.53;;
21101;SDS011;10709;49.006;12.100;2023-09-07T09:12:16;5.32;;;3.70;;
21101;SDS011;10709;49.006;12.100;2023-09-07T09:14:44;6.30;;;4.00;;
21101;SDS011;10709;49.006;12.100;2023-09-07T09:17:12;5.68;;;3.58;;
21101;SDS011;10709;49.006;12.100;2023-09-07T09:19:40;5.13;;;3.75;;
21101;SDS011;10709;49.006;12.100;2023-09-07T09:22:10;6.47;;;3.85;;
21101;SDS011;10709;49.006;12.100;2023-09-07T09:24:37;7.05;;;3.67;;
21101;SDS011;10709;49.006;12.100;2023-09-07T09:27:04;7.47;;;3.85;;
21101;SDS011;10709;49.006;12.100;2023-09-07T09:29:34;4.38;;;3.60;;
21101;SDS011;10709;49.006;12.100;2023-09-07T09:32:05;7.28;;;3.80;;
21101;SDS011;10709;49.006;12.100;2023-09-07T09:34:33;5.93;;;3.58;;
21101;SDS011;10709;49.006;12.100;2023-09-07T09:37:01;6.70;;;3.60;;
21101;SDS011;10709;49.006;12.100;2023-09-07T09:39:32;5.45;;;3.53;;
21101;SDS011;10709;49.006;12.100;2023-09-07T09:42:00;12.38;;;3.65;;
21101;SDS011;10709;49.006;12.100;2023-09-07T09:44:28;6.28;;;3.40;;
21101;SDS011;10709;49.006;12.100;2023-09-07T09:46:55;4.90;;;3.50;;
21101;SDS011;10709;49.006;12.100;2023-09-07T09:49:23;5.18;;;3.20;;
21101;SDS011;10709;49.006;12.100;2023-09-07T09:51:52;10.68;;;3.60;;
21101;SDS011;10709;49.006;12.100;2023-09-07T09:54:20;4.90;;;3.70;;
21101;SDS011;10709;49.006;12.100;2023-09-07T09:56:48;4.57;;;3.72;;
21101;SDS011;10709;49.006;12.100;2023-09-07T09:59:15;5.95;;;3.30;;
21101;SDS011;10709;49.006;12.100;2023-09-07T10:01:46;6.32;;;3.33;;
21101;SDS011;10709;49.006;12.100;2023-09-07T10:04:15;4.55;;;3.38;;
21101;SDS011;10709;49.006;12.100;2023-09-07T10:06:53;6.10;;;3.70;;
21101;SDS011;10709;49.006;12.100;2023-09-07T10:09:21;4.72;;;3.20;;
21101;SDS011;10709;49.006;12.100;2023-09-07T10:11:51;3.88;;;3.42;;
21101;SDS011;10709;49.006;12.100;2023-09-07T10:14:20;3.92;;;3.45;;
21101;SDS011;10709;49.006;12.100;2023-09-07T10:16:50;4.18;;;3.38;;
21101;SDS011;10709;49.006;12.100;2023-09-07T10:19:22;4.22;;;3.30;;
21101;SDS011;10709;49.006;12.100;2023-09-07T10:21:50;4.25;;;3.38;;
21101;SDS011;10709;49.006;12.100;2023-09-07T10:24:31;3.95;;;3.15;;
21101;SDS011;10709;49.006;12.100;2023-09-07T10:27:03;3.78;;;3.17;;
21101;SDS011;10709;49.006;12.100;2023-09-07T10:29:43;7.75;;;3.10;;
21101;SDS011;10709;49.006;12.100;2023-09-07T10:32:22;3.40;;;3.10;;
21101;SDS011;10709;49.006;12.100;2023-09-07T10:34:49;4.53;;;3.10;;
21101;SDS011;10709;49.006;12.100;2023-09-07T10:37:16;3.85;;;3.40;;
21101;SDS011;10709;49.006;12.100;2023-09-07T10:39:44;6.05;;;3.47;;
21101;SDS011;10709;49.006;12.100;2023-09-07T10:42:24;4.65;;;3.33;;
21101;SDS011;10709;49.006;12.100;2023-09-07T10:44:52;4.05;;;3.30;;
21101;SDS011;10709;49.006;12.100;2023-09-07T10:47:19;3.67;;;3.28;;
21101;SDS011;10709;49.006;12.100;2023-09-07T10:49:45;7.75;;;3.70;;
21101;SDS011;10709;49.006;12.100;2023-09-07T10:52:12;6.28;;;3.30;;
21101;SDS011;10709;49.006;12.100;2023-09-07T10:54:39;3.70;;;3.30;;
21101;SDS011;10709;49.006;12.100;2023-09-07T10:57:09;5.85;;;3.70;;
21101;SDS011;10709;49.006;12.100;2023-09-07T10:59:37;7.10;;;3.60;;
21101;SDS011;10709;49.006;12.100;2023-09-07T11:02:04;3.70;;;3.40;;
21101;SDS011;10709;49.006;12.100;2023-09-07T11:04:33;3.85;;;3.35;;
21101;SDS011;10709;49.006;12.100;2023-09-07T11:07:00;4.50;;;3.25;;
21101;SDS011;10709;49.006;12.100;2023-09-07T11:09:29;4.22;;;3.42;;
21101;SDS011;10709;49.006;12.100;2023-09-07T11:11:56;4.25;;;3.63;;
21101;SDS011;10709;49.006;12.100;2023-09-07T11:14:28;5.90;;;3.75;;
21101;SDS011;10709;49.006;12.100;2023-09-07T11:16:56;6.40;;;4.20;;
21101;SDS011;10709;49.006;12.100;2023-09-07T11:19:23;7.10;;;3.55;;
21101;SDS011;10709;49.006;12.100;2023-09-07T11:21:52;8.38;;;3.80;;
21101;SDS011;10709;49.006;12.100;2023-09-07T11:24:19;5.95;;;3.72;;
21101;SDS011;10709;49.006;12.100;2023-09-07T11:26:47;6.88;;;3.88;;
21101;SDS011;10709;49.006;12.100;2023-09-07T11:29:16;4.15;;;3.47;;
21101;SDS011;10709;49.006;12.100;2023-09-07T11:31:45;5.65;;;3.70;;
21101;SDS011;10709;49.006;12.100;2023-09-07T11:34:12;5.18;;;3.92;;
21101;SDS011;10709;49.006;12.100;2023-09-07T11:36:40;4.80;;;3.60;;
21101;SDS011;10709;49.006;12.100;2023-09-07T11:39:07;4.35;;;3.65;;
21101;SDS011;10709;49.006;12.100;2023-09-07T11:41:41;6.70;;;3.50;;
21101;SDS011;10709;49.006;12.100;2023-09-07T11:44:10;4.18;;;3.78;;
21101;SDS011;10709;49.006;12.100;2023-09-07T11:46:38;4.05;;;3.47;;
21101;SDS011;10709;49.006;12.100;2023-09-07T11:49:06;4.20;;;3.80;;
21101;SDS011;10709;49.006;12.100;2023-09-07T11:51:33;5.07;;;3.70;;
21101;SDS011;10709;49.006;12.100;2023-09-07T11:54:01;4.55;;;3.20;;
21101;SDS011;10709;49.006;12.100;2023-09-07T11:56:29;6.35;;;3.45;;
21101;SDS011;10709;49.006;12.100;2023-09-07T11:58:55;8.55;;;3.58;;
21101;SDS011;10709;49.006;12.100;2023-09-07T12:01:22;4.18;;;3.78;;
21101;SDS011;10709;49.006;12.100;2023-09-07T12:03:49;5.40;;;3.83;;
21101;SDS011;10709;49.006;12.100;2023-09-07T12:06:16;5.15;;;3.75;;
21101;SDS011;10709;49.006;12.100;2023-09-07T12:08:57;6.30;;;3.70;;
21101;SDS011;10709;49.006;12.100;2023-09-07T12:11:25;7.18;;;3.80;;
21101;SDS011;10709;49.006;12.100;2023-09-07T12:13:54;3.65;;;3.33;;
21101;SDS011;10709;49.006;12.100;2023-09-07T12:16:21;4.22;;;3.65;;
21101;SDS011;10709;49.006;12.100;2023-09-07T12:18:48;3.83;;;3.40;;
21101;SDS011;10709;49.006;12.100;2023-09-07T12:21:15;6.95;;;4.63;;
21101;SDS011;10709;49.006;12.100;2023-09-07T12:23:42;4.97;;;3.80;;
21101;SDS011;10709;49.006;12.100;2023-09-07T12:26:09;3.97;;;3.60;;
21101;SDS011;10709;49.006;12.100;2023-09-07T12:28:36;3.97;;;3.55;;
21101;SDS011;10709;49.006;12.100;2023-09-07T12:31:02;4.13;;;3.47;;
21101;SDS011;10709;49.006;12.100;2023-09-07T12:33:29;6.35;;;3.90;;
21101;SDS011;10709;49.006;12.100;2023-09-07T12:35:57;4.45;;;3.88;;
21101;SDS011;10709;49.006;12.100;2023-09-07T12:38:23;6.75;;;3.58;;
21101;SDS011;10709;49.006;12.100;2023-09-07T12:40:54;5.03;;;3.95;;
21101;SDS011;10709;49.006;12.100;2023-09-07T12:43:24;9.57;;;4.70;;
21101;SDS011;10709;49.006;12.100;2023-09-07T12:45:51;6.78;;;3.97;;
21101;SDS011;10709;49.006;12.100;2023-09-07T12:48:19;6.90;;;4.20;;
21101;SDS011;10709;49.006;12.100;2023-09-07T12:50:46;4.78;;;4.03;;
21101;SDS011;10709;49.006;12.100;2023-09-07T12:53:13;5.13;;;3.75;;
21101;SDS011;10709;49.006;12.100;2023-09-07T12:55:39;4.30;;;3.90;;
21101;SDS011;10709;49.006;12.100;2023-09-07T12:58:06;6.30;;;4.03;;
21101;SDS011;10709;49.006;12.100;2023-09-07T13:00:33;4.68;;;3.90;;
21101;SDS011;10709;49.006;12.100;2023-09-07T13:03:00;4.35;;;3.80;;
21101;SDS011;10709;49.006;12.100;2023-09-07T13:05:26;4.13;;;3.72;;
21101;SDS011;10709;49.006;12.100;2023-09-07T13:07:56;5.88;;;3.90;;
21101;SDS011;10709;49.006;12.100;2023-09-07T13:10:24;5.45;;;4.10;;
21101;SDS011;10709;49.006;12.100;2023-09-07T13:12:51;6.10;;;3.95;;
21101;SDS011;10709;49.006;12.100;2023-09-07T13:15:17;5.90;;;3.78;;
21101;SDS011;10709;49.006;12.100;2023-09-07T13:17:44;4.50;;;4.00;;
21101;SDS011;10709;49.006;12.100;2023-09-07T13:20:10;4.75;;;3.92;;
21101;SDS011;10709;49.006;12.100;2023-09-07T13:22:38;5.47;;;3.83;;
21101;SDS011;10709;49.006;12.100;2023-09-07T13:25:08;6.97;;;3.78;;
21101;SDS011;10709;49.006;12.100;2023-09-07T13:27:35;6.53;;;4.28;;
21101;SDS011;10709;49.006;12.100;2023-09-07T13:30:02;4.55;;;3.80;;
21101;SDS011;10709;49.006;12.100;2023-09-07T13:32:30;6.90;;;4.35;;
21101;SDS011;10709;49.006;12.100;2023-09-07T13:34:58;4.65;;;4.07;;
21101;SDS011;10709;49.006;12.100;2023-09-07T13:37:25;4.65;;;4.18;;
21101;SDS011;10709;49.006;12.100;2023-09-07T13:39:52;4.95;;;3.97;;
21101;SDS011;10709;49.006;12.100;2023-09-07T13:42:18;7.10;;;3.97;;
21101;SDS011;10709;49.006;12.100;2023-09-07T13:44:48;4.80;;;3.95;;
21101;SDS011;10709;49.006;12.100;2023-09-07T13:47:16;7.60;;;3.90;;
21101;SDS011;10709;49.006;12.100;2023-09-07T13:49:43;4.55;;;3.90;;
21101;SDS011;10709;49.006;12.100;2023-09-07T13:52:10;4.63;;;4.03;;
21101;SDS011;10709;49.006;12.100;2023-09-07T13:54:36;4.97;;;3.85;;
21101;SDS011;10709;49.006;12.100;2023-09-07T13:57:03;5.35;;;3.80;;
21101;SDS011;10709;49.006;12.100;2023-09-07T13:59:30;4.60;;;4.03;;
21101;SDS011;10709;49.006;12.100;2023-09-07T14:02:00;5.85;;;4.00;;
21101;SDS011;10709;49.006;12.100;2023-09-07T14:04:27;6.78;;;4.43;;
21101;SDS011;10709;49.006;12.100;2023-09-07T14:06:54;5.03;;;4.18;;
21101;SDS011;10709;49.006;12.100;2023-09-07T14:09:21;5.22;;;4.18;;
21101;SDS011;10709;49.006;12.100;2023-09-07T14:11:49;4.38;;;3.55;;
21101;SDS011;10709;49.006;12.100;2023-09-07T14:14:16;5.50;;;3.80;;
21101;SDS011;10709;49.006;12.100;2023-09-07T14:16:44;5.68;;;4.13;;
21101;SDS011;10709;49.006;12.100;2023-09-07T14:19:11;7.80;;;4.10;;
21101;SDS011;10709;49.006;12.100;2023-09-07T14:21:38;5.30;;;4.22;;
21101;SDS011;10709;49.006;12.100;2023-09-07T14:24:05;5.90;;;4.45;;
21101;SDS011;10709;49.006;12.100;2023-09-07T14:26:31;4.75;;;4.13;;
21101;SDS011;10709;49.006;12.100;2023-09-07T14:28:58;4.45;;;4.05;;
21101;SDS011;10709;49.006;12.100;2023-09-07T14:31:24;6.07;;;3.97;;
21101;SDS011;10709;49.006;12.100;2023-09-07T14:33:51;5.28;;;4.10;;
21101;SDS011;10709;49.006;12.100;2023-09-07T14:36:18;6.15;;;4.38;;